createdAt,value
2023-02-14T00:01:59.080Z,12.40
2023-02-14T00:04:25.629Z,12.40
2023-02-14T00:06:52.108Z,12.50
2023-02-14T00:09:18.585Z,12.50
2023-02-14T00:11:45.070Z,12.40
2023-02-14T00:14:11.539Z,12.40
2023-02-14T00:16:38.015Z,12.50
2023-02-14T00:19:04.525Z,12.50
2023-02-14T00:21:31.011Z,12.40
2023-02-14T00:23:57.486Z,12.40
2023-02-14T00:26:23.947Z,12.40
2023-02-14T00:28:50.435Z,12.40
2023-02-14T00:31:17.057Z,12.40
2023-02-14T00:33:43.689Z,12.40
2023-02-14T00:36:10.159Z,12.40
2023-02-14T00:38:36.642Z,12.40
2023-02-14T00:41:03.116Z,12.40
2023-02-14T00:43:29.610Z,12.40
2023-02-14T00:45:56.192Z,12.40
2023-02-14T00:48:22.689Z,12.40
2023-02-14T00:50:49.154Z,12.40
2023-02-14T00:53:15.642Z,12.40
2023-02-14T00:55:42.148Z,12.40
2023-02-14T00:58:08.622Z,12.30
2023-02-14T01:00:35.269Z,12.30
2023-02-14T01:03:01.759Z,12.30
2023-02-14T01:05:28.265Z,12.40
2023-02-14T01:07:54.741Z,12.30
2023-02-14T01:10:21.215Z,12.30
2023-02-14T01:12:47.706Z,12.30
2023-02-14T01:15:14.178Z,12.30
2023-02-14T01:17:40.625Z,12.30
2023-02-14T01:20:12.103Z,12.30
2023-02-14T01:22:38.595Z,12.40
2023-02-14T01:25:05.095Z,12.40
2023-02-14T01:27:31.580Z,12.30
2023-02-14T01:30:00.296Z,12.40
2023-02-14T01:32:26.863Z,12.30
2023-02-14T01:34:53.347Z,12.40
2023-02-14T01:37:19.839Z,12.40
2023-02-14T01:39:46.294Z,12.40
2023-02-14T01:42:12.775Z,12.40
2023-02-14T01:44:39.299Z,12.40
2023-02-14T01:47:05.789Z,12.40
2023-02-14T01:49:32.285Z,12.40
2023-02-14T01:51:58.769Z,12.40
2023-02-14T01:54:30.137Z,12.30
2023-02-14T01:56:56.623Z,12.30
2023-02-14T01:59:23.099Z,12.40
2023-02-14T02:01:49.569Z,12.30
2023-02-14T02:04:16.044Z,12.30
2023-02-14T02:06:42.526Z,12.40
2023-02-14T02:09:08.983Z,12.30
2023-02-14T02:11:35.464Z,12.40
2023-02-14T02:14:06.155Z,12.40
2023-02-14T02:16:32.677Z,12.30
2023-02-14T02:18:59.275Z,12.30
2023-02-14T02:21:25.752Z,12.30
2023-02-14T02:23:52.221Z,12.30
2023-02-14T02:26:18.704Z,12.30
2023-02-14T02:28:45.259Z,12.30
2023-02-14T02:31:11.885Z,12.30
2023-02-14T02:33:38.443Z,12.30
2023-02-14T02:36:04.945Z,12.30
2023-02-14T02:38:31.431Z,12.30
2023-02-14T02:40:58.201Z,12.30
2023-02-14T02:43:24.826Z,12.30
2023-02-14T02:45:51.332Z,12.30
2023-02-14T02:48:17.843Z,12.20
2023-02-14T02:50:44.329Z,12.30
2023-02-14T02:53:11.873Z,12.30
2023-02-14T02:55:38.364Z,12.30
2023-02-14T02:58:04.836Z,12.30
2023-02-14T03:00:31.329Z,12.30
2023-02-14T03:02:57.825Z,12.30
2023-02-14T03:05:24.333Z,12.30
2023-02-14T03:07:50.817Z,12.30
2023-02-14T03:10:17.315Z,12.30
2023-02-14T03:12:43.802Z,12.30
2023-02-14T03:15:10.326Z,12.30
2023-02-14T03:17:36.819Z,12.30
2023-02-14T03:20:03.309Z,12.30
2023-02-14T03:22:29.788Z,12.30
2023-02-14T03:24:56.290Z,12.30
2023-02-14T03:27:22.770Z,12.30
2023-02-14T03:29:49.273Z,12.30
2023-02-14T03:32:15.928Z,12.30
2023-02-14T03:34:42.475Z,12.30
2023-02-14T03:37:08.954Z,12.30
2023-02-14T03:39:35.434Z,12.30
2023-02-14T03:42:01.903Z,12.30
2023-02-14T03:44:28.375Z,12.10
2023-02-14T03:46:54.861Z,12.30
2023-02-14T03:49:21.340Z,12.30
2023-02-14T03:51:47.836Z,12.30
2023-02-14T03:54:14.319Z,12.20
2023-02-14T03:56:40.799Z,12.20
2023-02-14T03:59:07.287Z,12.30
2023-02-14T04:01:33.797Z,12.30
2023-02-14T04:04:00.309Z,12.20
2023-02-14T04:06:26.786Z,12.30
2023-02-14T04:08:53.251Z,12.20
2023-02-14T04:11:19.709Z,12.30
2023-02-14T04:13:46.181Z,12.30
2023-02-14T04:16:12.736Z,12.30
2023-02-14T04:18:39.258Z,12.30
2023-02-14T04:21:05.760Z,12.30
2023-02-14T04:23:32.220Z,12.30
2023-02-14T04:25:58.725Z,12.30
2023-02-14T04:28:25.204Z,12.30
2023-02-14T04:30:51.768Z,12.20
2023-02-14T04:33:18.248Z,12.20
2023-02-14T04:35:44.756Z,12.30
2023-02-14T04:38:11.248Z,12.20
2023-02-14T04:40:37.722Z,12.30
2023-02-14T04:43:04.188Z,12.30
2023-02-14T04:45:30.695Z,12.20
2023-02-14T04:47:57.174Z,12.30
2023-02-14T04:50:23.644Z,12.20
2023-02-14T04:52:50.118Z,12.20
2023-02-14T04:55:16.595Z,12.30
2023-02-14T04:57:48.288Z,12.20
2023-02-14T05:00:14.772Z,12.20
2023-02-14T05:02:41.263Z,12.20
2023-02-14T05:05:07.754Z,12.30
2023-02-14T05:07:34.229Z,12.20
2023-02-14T05:10:00.717Z,12.20
2023-02-14T05:12:27.215Z,12.10
2023-02-14T05:14:53.708Z,12.10
2023-02-14T05:17:20.234Z,12.20
2023-02-14T05:19:46.722Z,12.20
2023-02-14T05:22:13.201Z,12.20
2023-02-14T05:24:39.696Z,12.20
2023-02-14T05:27:06.219Z,12.30
2023-02-14T05:29:32.700Z,12.20
2023-02-14T05:31:59.205Z,12.10
2023-02-14T05:34:25.675Z,12.20
2023-02-14T05:36:52.150Z,12.20
2023-02-14T05:39:18.627Z,12.20
2023-02-14T05:41:45.120Z,12.20
2023-02-14T05:44:11.617Z,12.20
2023-02-14T05:46:38.103Z,12.20
2023-02-14T05:49:04.579Z,12.20
2023-02-14T05:51:31.052Z,12.20
2023-02-14T05:53:57.540Z,12.20
2023-02-14T05:56:24.049Z,12.20
2023-02-14T05:58:50.560Z,12.20
2023-02-14T06:01:17.087Z,12.20
2023-02-14T06:03:43.560Z,12.20
2023-02-14T06:06:10.065Z,12.10
2023-02-14T06:08:36.528Z,12.20
2023-02-14T06:11:03.059Z,12.20
2023-02-14T06:13:29.528Z,12.20
2023-02-14T06:15:56.019Z,12.20
2023-02-14T06:18:22.493Z,12.20
2023-02-14T06:20:48.984Z,12.20
2023-02-14T06:23:15.460Z,12.20
2023-02-14T06:25:41.953Z,12.10
2023-02-14T06:28:08.442Z,12.20
2023-02-14T06:30:36.506Z,12.20
2023-02-14T06:33:03.064Z,12.20
2023-02-14T06:35:29.537Z,12.20
2023-02-14T06:37:56.021Z,12.20
2023-02-14T06:40:22.491Z,12.10
2023-02-14T06:42:48.977Z,12.10
2023-02-14T06:45:15.495Z,12.20
2023-02-14T06:47:42.002Z,12.20
2023-02-14T06:50:08.490Z,12.20
2023-02-14T06:52:34.973Z,12.20
2023-02-14T06:55:01.449Z,12.20
2023-02-14T06:57:27.941Z,12.20
2023-02-14T06:59:54.415Z,12.20
2023-02-14T07:02:23.469Z,12.10
2023-02-14T07:04:51.199Z,12.00
2023-02-14T07:07:17.708Z,12.10
2023-02-14T07:09:44.197Z,12.10
2023-02-14T07:12:10.745Z,12.10
2023-02-14T07:14:37.225Z,12.20
2023-02-14T07:17:03.722Z,12.20
2023-02-14T07:19:30.195Z,12.10
2023-02-14T07:21:56.679Z,12.10
2023-02-14T07:24:23.142Z,12.10
2023-02-14T07:26:49.638Z,12.10
2023-02-14T07:29:16.134Z,12.10
2023-02-14T07:31:42.806Z,12.10
2023-02-14T07:34:09.397Z,12.20
2023-02-14T07:36:35.862Z,12.20
2023-02-14T07:39:06.438Z,12.10
2023-02-14T07:41:32.903Z,12.00
2023-02-14T07:43:59.390Z,12.10
2023-02-14T07:46:25.924Z,12.00
2023-02-14T07:48:54.443Z,12.00
2023-02-14T07:51:20.937Z,12.10
2023-02-14T07:53:47.424Z,12.10
2023-02-14T07:56:13.908Z,12.10
2023-02-14T07:58:40.515Z,12.20
2023-02-14T08:01:06.987Z,12.20
2023-02-14T08:03:33.460Z,12.10
2023-02-14T08:05:59.938Z,12.10
2023-02-14T08:08:26.484Z,12.10
2023-02-14T08:10:52.961Z,12.10
2023-02-14T08:13:19.440Z,12.10
2023-02-14T08:15:45.931Z,12.10
2023-02-14T08:18:12.421Z,12.10
2023-02-14T08:20:38.903Z,12.20
2023-02-14T08:23:05.403Z,12.20
2023-02-14T08:25:31.879Z,12.20
2023-02-14T08:27:58.365Z,12.20
2023-02-14T08:30:24.906Z,12.10
2023-02-14T08:32:51.470Z,12.20
2023-02-14T08:35:17.958Z,12.20
2023-02-14T08:37:44.458Z,12.10
2023-02-14T08:40:12.456Z,12.20
2023-02-14T08:42:38.922Z,12.20
2023-02-14T08:45:05.419Z,12.20
2023-02-14T08:47:31.905Z,12.20
2023-02-14T08:49:58.393Z,12.20
2023-02-14T08:52:24.856Z,12.20
2023-02-14T08:54:51.356Z,12.20
2023-02-14T08:57:17.881Z,12.20
2023-02-14T08:59:44.353Z,12.30
2023-02-14T09:02:10.854Z,12.30
2023-02-14T09:04:37.414Z,12.30
2023-02-14T09:07:03.944Z,12.30
2023-02-14T09:09:30.491Z,12.30
2023-02-14T09:11:56.984Z,12.30
2023-02-14T09:14:23.467Z,12.30
2023-02-14T09:16:50.013Z,12.20
2023-02-14T09:19:16.863Z,12.30
2023-02-14T09:21:43.357Z,12.20
2023-02-14T09:24:09.846Z,12.30
2023-02-14T09:26:36.311Z,12.30
2023-02-14T09:29:02.814Z,12.30
2023-02-14T09:31:29.387Z,12.30
2023-02-14T09:33:55.935Z,12.30
2023-02-14T09:36:22.411Z,12.30
2023-02-14T09:38:48.897Z,12.30
2023-02-14T09:41:15.464Z,12.30
2023-02-14T09:43:41.945Z,12.30
2023-02-14T09:46:08.501Z,12.30
2023-02-14T09:48:35.006Z,12.30
2023-02-14T09:51:01.710Z,12.30
2023-02-14T09:53:28.328Z,12.30
2023-02-14T09:55:54.818Z,12.30
2023-02-14T09:58:21.535Z,12.30
2023-02-14T10:00:48.082Z,12.30
2023-02-14T10:03:14.648Z,12.40
2023-02-14T10:05:41.126Z,12.40
2023-02-14T10:08:07.612Z,12.40
2023-02-14T10:10:34.101Z,12.40
2023-02-14T10:13:00.563Z,12.40
2023-02-14T10:15:27.058Z,12.40
2023-02-14T10:17:53.522Z,12.40
2023-02-14T10:20:20.020Z,12.40
2023-02-14T10:22:46.485Z,12.40
2023-02-14T10:25:13.000Z,12.40
2023-02-14T10:27:39.442Z,12.40
2023-02-14T10:30:06.002Z,12.40
2023-02-14T10:32:32.528Z,12.50
2023-02-14T10:34:59.009Z,12.40
2023-02-14T10:37:25.500Z,12.50
2023-02-14T10:39:54.546Z,12.40
2023-02-14T10:42:21.141Z,12.40
2023-02-14T10:44:47.613Z,12.40
2023-02-14T10:47:14.094Z,12.50
2023-02-14T10:49:40.568Z,12.50
2023-02-14T10:52:12.579Z,12.50
2023-02-14T10:54:39.066Z,12.50
2023-02-14T10:57:06.576Z,12.50
2023-02-14T10:59:33.056Z,12.40
2023-02-14T11:01:59.545Z,12.50
2023-02-14T11:04:26.034Z,12.60
2023-02-14T11:06:52.519Z,12.50
2023-02-14T11:09:18.993Z,12.60
2023-02-14T11:11:45.511Z,12.60
2023-02-14T11:14:11.983Z,12.50
2023-02-14T11:16:38.485Z,12.60
2023-02-14T11:19:04.974Z,12.60
2023-02-14T11:21:31.472Z,12.60
2023-02-14T11:23:57.963Z,12.60
2023-02-14T11:26:24.606Z,12.60
2023-02-14T11:28:51.068Z,12.60
2023-02-14T11:31:17.601Z,12.60
2023-02-14T11:33:44.102Z,12.60
2023-02-14T11:36:10.598Z,12.50
2023-02-14T11:38:37.103Z,12.50
2023-02-14T11:41:03.590Z,12.50
2023-02-14T11:43:30.068Z,12.50
2023-02-14T11:45:56.642Z,12.50
2023-02-14T11:48:36.803Z,12.40
2023-02-14T11:51:04.021Z,12.30
2023-02-14T11:53:30.515Z,12.50
2023-02-14T11:55:56.987Z,12.50
2023-02-14T11:58:23.453Z,12.50
2023-02-14T12:00:49.930Z,12.50
2023-02-14T12:03:16.432Z,12.50
2023-02-14T12:05:42.904Z,12.50
2023-02-14T12:08:09.385Z,12.50
2023-02-14T12:10:35.868Z,12.60
2023-02-14T12:13:02.351Z,12.60
2023-02-14T12:15:28.842Z,12.50
2023-02-14T12:17:55.355Z,12.60
2023-02-14T12:20:24.928Z,12.60
2023-02-14T12:22:51.437Z,12.60
2023-02-14T12:25:17.928Z,12.50
2023-02-14T12:27:44.408Z,12.60
2023-02-14T12:30:10.909Z,12.60
2023-02-14T12:32:37.403Z,12.60
2023-02-14T12:35:03.861Z,12.60
2023-02-14T12:37:30.336Z,12.60
2023-02-14T12:39:56.815Z,12.60
2023-02-14T12:42:23.303Z,12.70
2023-02-14T12:44:49.773Z,12.70
2023-02-14T12:47:16.278Z,12.70
2023-02-14T12:49:42.774Z,12.70
2023-02-14T12:52:09.250Z,12.70
2023-02-14T12:54:35.764Z,12.70
2023-02-14T12:57:02.247Z,12.70
2023-02-14T12:59:28.735Z,12.70
2023-02-14T13:01:55.240Z,12.70
2023-02-14T13:04:24.673Z,12.70
2023-02-14T13:06:51.139Z,12.70
2023-02-14T13:09:17.612Z,12.80
2023-02-14T13:11:44.098Z,12.80
2023-02-14T13:14:10.595Z,12.80
2023-02-14T13:16:37.235Z,12.80
2023-02-14T13:19:03.964Z,12.80
2023-02-14T13:21:30.741Z,12.80
2023-02-14T13:23:57.229Z,12.80
2023-02-14T13:26:23.720Z,12.80
2023-02-14T13:28:50.187Z,12.80
2023-02-14T13:31:16.736Z,12.80
2023-02-14T13:33:43.289Z,12.90
2023-02-14T13:36:09.768Z,12.90
2023-02-14T13:38:36.250Z,12.90
2023-02-14T13:41:03.065Z,12.90
2023-02-14T13:43:30.275Z,12.80
2023-02-14T13:45:56.822Z,12.90
2023-02-14T13:48:23.329Z,12.90
2023-02-14T13:50:49.808Z,12.90
2023-02-14T13:53:18.710Z,12.90
2023-02-14T13:55:45.566Z,12.90
2023-02-14T13:58:12.439Z,12.90
2023-02-14T14:00:38.958Z,12.90
2023-02-14T14:03:06.697Z,12.90
2023-02-14T14:05:33.175Z,12.90
2023-02-14T14:07:59.642Z,12.90
2023-02-14T14:10:26.129Z,13.00
2023-02-14T14:12:52.597Z,12.90
2023-02-14T14:15:19.061Z,12.90
2023-02-14T14:17:45.526Z,13.00
2023-02-14T14:20:12.037Z,12.90
2023-02-14T14:22:38.537Z,13.00
2023-02-14T14:25:05.086Z,13.00
2023-02-14T14:27:31.638Z,13.00
2023-02-14T14:29:58.131Z,13.00
2023-02-14T14:32:24.609Z,13.00
2023-02-14T14:34:51.101Z,13.00
2023-02-14T14:37:17.579Z,13.00
2023-02-14T14:39:44.148Z,13.00
2023-02-14T14:42:10.607Z,13.00
2023-02-14T14:44:37.100Z,13.00
2023-02-14T14:47:03.580Z,13.00
2023-02-14T14:49:30.096Z,13.00
2023-02-14T14:51:56.574Z,13.00
2023-02-14T14:54:23.066Z,13.00
2023-02-14T14:56:49.560Z,13.00
2023-02-14T14:59:16.017Z,13.00
2023-02-14T15:01:42.511Z,13.00
2023-02-14T15:04:11.176Z,13.10
2023-02-14T15:06:38.621Z,13.00
2023-02-14T15:09:05.094Z,13.00
2023-02-14T15:11:36.799Z,13.10
2023-02-14T15:14:03.375Z,13.10
2023-02-14T15:16:29.898Z,13.10
2023-02-14T15:18:56.438Z,13.00
2023-02-14T15:21:22.942Z,13.10
2023-02-14T15:23:49.407Z,13.10
2023-02-14T15:26:15.899Z,13.00
2023-02-14T15:28:42.386Z,13.00
2023-02-14T15:31:08.900Z,13.00
2023-02-14T15:33:35.422Z,13.10
2023-02-14T15:36:01.900Z,13.10
2023-02-14T15:38:28.363Z,13.10
2023-02-14T15:40:54.847Z,13.00
2023-02-14T15:43:21.324Z,12.90
2023-02-14T15:45:47.882Z,13.10
2023-02-14T15:48:14.359Z,13.10
2023-02-14T15:50:40.865Z,13.00
2023-02-14T15:53:07.328Z,13.00
2023-02-14T15:55:36.866Z,13.00
2023-02-14T15:58:03.335Z,13.00
2023-02-14T16:00:29.846Z,13.00
2023-02-14T16:02:56.317Z,13.10
2023-02-14T16:05:22.801Z,13.00
2023-02-14T16:07:49.269Z,13.10
2023-02-14T16:10:15.751Z,13.10
2023-02-14T16:12:42.243Z,13.00
2023-02-14T16:15:08.722Z,13.00
2023-02-14T16:17:36.860Z,13.00
2023-02-14T16:20:03.339Z,13.00
2023-02-14T16:22:29.807Z,13.00
2023-02-14T16:24:56.283Z,13.00
2023-02-14T16:27:24.845Z,13.00
2023-02-14T16:29:51.366Z,13.00
2023-02-14T16:32:18.041Z,13.00
2023-02-14T16:34:44.572Z,13.00
2023-02-14T16:37:11.072Z,13.00
2023-02-14T16:39:37.563Z,13.00
2023-02-14T16:42:04.043Z,13.10
2023-02-14T16:44:30.517Z,13.10
2023-02-14T16:46:57.023Z,13.00
2023-02-14T16:49:23.486Z,13.00
2023-02-14T16:51:54.878Z,13.00
2023-02-14T16:54:21.365Z,13.00
2023-02-14T16:56:47.855Z,13.00
2023-02-14T16:59:14.335Z,13.00
2023-02-14T17:01:40.843Z,13.10
2023-02-14T17:04:07.338Z,13.00
2023-02-14T17:06:33.812Z,13.10
2023-02-14T17:09:00.301Z,13.00
2023-02-14T17:11:26.771Z,13.10
2023-02-14T17:13:53.243Z,13.10
2023-02-14T17:16:24.903Z,13.10
2023-02-14T17:18:51.384Z,13.10
2023-02-14T17:21:17.851Z,13.10
2023-02-14T17:23:44.341Z,13.10
2023-02-14T17:26:10.801Z,13.20
2023-02-14T17:28:37.266Z,13.10
2023-02-14T17:31:04.173Z,13.10
2023-02-14T17:33:30.986Z,13.10
2023-02-14T17:35:57.449Z,13.10
2023-02-14T17:38:23.923Z,13.10
2023-02-14T17:40:50.390Z,13.10
2023-02-14T17:43:16.895Z,13.10
2023-02-14T17:45:43.375Z,13.10
2023-02-14T17:48:11.718Z,13.10
2023-02-14T17:50:38.339Z,13.10
2023-02-14T17:53:04.814Z,13.10
2023-02-14T17:55:31.274Z,13.10
2023-02-14T17:57:57.759Z,13.10
2023-02-14T18:00:24.243Z,13.10
2023-02-14T18:02:50.822Z,13.10
2023-02-14T18:05:17.313Z,13.10
2023-02-14T18:07:43.809Z,13.10
2023-02-14T18:10:10.276Z,13.10
2023-02-14T18:12:36.789Z,13.10
2023-02-14T18:15:03.260Z,13.10
2023-02-14T18:17:29.757Z,13.10
2023-02-14T18:19:56.231Z,13.10
2023-02-14T18:22:22.716Z,13.10
2023-02-14T18:24:49.196Z,13.10
2023-02-14T18:27:15.691Z,13.10
2023-02-14T18:29:42.170Z,13.10
2023-02-14T18:32:08.795Z,13.00
2023-02-14T18:34:35.270Z,13.00
2023-02-14T18:37:01.686Z,13.10
2023-02-14T18:39:28.175Z,13.00
2023-02-14T18:41:54.656Z,12.90
2023-02-14T18:44:21.127Z,13.00
2023-02-14T18:46:47.596Z,13.00
2023-02-14T18:49:14.071Z,13.00
2023-02-14T18:51:40.543Z,13.00
2023-02-14T18:54:07.093Z,13.00
2023-02-14T18:56:33.678Z,13.00
2023-02-14T18:59:00.221Z,13.00
2023-02-14T19:01:31.022Z,13.00
2023-02-14T19:03:57.497Z,13.00
2023-02-14T19:06:23.985Z,13.00
2023-02-14T19:08:50.509Z,13.00
2023-02-14T19:11:16.981Z,13.00
2023-02-14T19:13:44.148Z,13.00
2023-02-14T19:16:10.644Z,13.00
2023-02-14T19:18:37.130Z,13.00
2023-02-14T19:21:03.606Z,13.00
2023-02-14T19:23:30.091Z,13.00
2023-02-14T19:25:56.570Z,13.00
2023-02-14T19:28:23.036Z,12.90
2023-02-14T19:30:49.540Z,13.00
2023-02-14T19:33:16.027Z,13.00
2023-02-14T19:35:42.503Z,13.00
2023-02-14T19:38:08.977Z,13.00
2023-02-14T19:40:35.459Z,13.00
2023-02-14T19:43:01.951Z,12.90
2023-02-14T19:45:28.487Z,12.90
2023-02-14T19:47:54.972Z,12.90
2023-02-14T19:50:22.115Z,12.90
2023-02-14T19:52:48.660Z,12.90
2023-02-14T19:55:15.158Z,12.90
2023-02-14T19:57:41.642Z,12.90
2023-02-14T20:00:08.135Z,12.90
2023-02-14T20:02:34.642Z,12.90
2023-02-14T20:05:01.130Z,12.90
2023-02-14T20:07:27.640Z,12.90
2023-02-14T20:09:54.224Z,12.90
2023-02-14T20:12:20.728Z,12.90
2023-02-14T20:14:51.604Z,12.90
2023-02-14T20:17:18.212Z,12.90
2023-02-14T20:19:44.698Z,12.90
2023-02-14T20:22:11.163Z,12.90
2023-02-14T20:24:37.671Z,12.90
2023-02-14T20:27:04.140Z,12.90
2023-02-14T20:29:30.639Z,12.90
2023-02-14T20:31:57.135Z,12.90
2023-02-14T20:34:23.673Z,12.90
2023-02-14T20:36:50.140Z,12.90
2023-02-14T20:39:16.610Z,12.90
2023-02-14T20:41:49.059Z,12.90
2023-02-14T20:44:15.576Z,12.90
2023-02-14T20:46:42.062Z,12.90
2023-02-14T20:49:10.042Z,12.90
2023-02-14T20:51:38.383Z,12.90
2023-02-14T20:54:04.862Z,12.90
2023-02-14T20:56:31.353Z,12.90
2023-02-14T20:58:57.836Z,12.90
2023-02-14T21:01:24.460Z,12.90
2023-02-14T21:03:51.066Z,12.90
2023-02-14T21:06:17.621Z,12.90
2023-02-14T21:08:49.228Z,12.90
2023-02-14T21:11:15.710Z,12.90
2023-02-14T21:13:42.212Z,12.90
2023-02-14T21:16:08.790Z,12.90
2023-02-14T21:18:35.313Z,12.80
2023-02-14T21:21:02.039Z,12.80
2023-02-14T21:23:28.678Z,12.80
2023-02-14T21:25:55.176Z,12.90
2023-02-14T21:28:21.654Z,12.90
2023-02-14T21:30:49.148Z,12.80
2023-02-14T21:33:15.705Z,12.80
2023-02-14T21:35:42.222Z,12.80
2023-02-14T21:38:08.703Z,12.80
2023-02-14T21:40:35.224Z,12.80
2023-02-14T21:43:01.706Z,12.80
2023-02-14T21:45:28.204Z,12.80
2023-02-14T21:47:54.679Z,12.80
2023-02-14T21:50:21.188Z,12.80
2023-02-14T21:52:47.735Z,12.80
2023-02-14T21:55:14.218Z,12.80
2023-02-14T21:57:40.758Z,12.80
2023-02-14T22:00:07.430Z,12.80
2023-02-14T22:02:33.918Z,12.80
2023-02-14T22:05:00.385Z,12.80
2023-02-14T22:07:26.891Z,12.80
2023-02-14T22:09:53.376Z,12.80
2023-02-14T22:12:19.892Z,12.80
2023-02-14T22:14:46.352Z,12.80
2023-02-14T22:17:12.828Z,12.80
2023-02-14T22:19:39.339Z,12.80
2023-02-14T22:22:05.833Z,12.80
2023-02-14T22:24:37.128Z,12.80
2023-02-14T22:27:03.618Z,12.80
2023-02-14T22:29:30.101Z,12.80
2023-02-14T22:31:56.624Z,12.80
2023-02-14T22:34:23.156Z,12.80
2023-02-14T22:36:49.673Z,12.80
2023-02-14T22:39:16.151Z,12.80
2023-02-14T22:41:42.645Z,12.80
2023-02-14T22:44:09.131Z,12.80
2023-02-14T22:46:35.642Z,12.80
2023-02-14T22:49:02.130Z,12.80
2023-02-14T22:51:28.645Z,12.80
2023-02-14T22:53:55.142Z,12.80
2023-02-14T22:56:21.644Z,12.70
2023-02-14T22:58:48.099Z,12.70
2023-02-14T23:01:14.604Z,12.80
2023-02-14T23:03:41.092Z,12.80
2023-02-14T23:06:07.592Z,12.80
2023-02-14T23:08:34.075Z,12.80
2023-02-14T23:11:00.564Z,12.80
2023-02-14T23:13:27.040Z,12.80
2023-02-14T23:15:53.552Z,12.80
2023-02-14T23:18:20.010Z,12.70
2023-02-14T23:20:46.496Z,12.70
2023-02-14T23:23:12.973Z,12.70
2023-02-14T23:25:39.487Z,12.80
2023-02-14T23:28:05.962Z,12.70
2023-02-14T23:30:32.446Z,12.70
2023-02-14T23:32:58.920Z,12.70
2023-02-14T23:35:25.406Z,12.70
2023-02-14T23:37:51.891Z,12.70
2023-02-14T23:40:18.357Z,12.70
2023-02-14T23:42:44.844Z,12.70
2023-02-14T23:45:11.321Z,12.70
2023-02-14T23:47:37.797Z,12.70
2023-02-14T23:50:04.268Z,12.70
2023-02-14T23:52:30.741Z,12.70
2023-02-14T23:54:57.231Z,12.70
2023-02-14T23:57:23.732Z,12.70
2023-02-14T23:59:50.202Z,12.70
